createdAt,value
2023-03-17T00:01:51.412Z,46.28
2023-03-17T00:06:54.884Z,46.33
2023-03-17T00:12:00.065Z,44.78
2023-03-17T00:17:04.129Z,45.45
2023-03-17T00:22:10.267Z,40.15
2023-03-17T00:27:14.019Z,45.45
2023-03-17T00:32:19.029Z,41.33
2023-03-17T00:37:21.737Z,40.42
2023-03-17T00:42:25.238Z,45.67
2023-03-17T00:47:27.853Z,43.67
2023-03-17T00:52:30.590Z,31.98
2023-03-17T00:57:33.130Z,49.22
2023-03-17T01:02:35.827Z,49.60
2023-03-17T01:07:38.814Z,39.50
2023-03-17T01:12:41.464Z,42.43
2023-03-17T01:17:47.219Z,41.47
2023-03-17T01:22:51.621Z,37.90
2023-03-17T01:27:57.916Z,46.67
2023-03-17T01:33:01.618Z,47.33
2023-03-17T01:38:06.576Z,44.63
2023-03-17T01:43:08.938Z,42.25
2023-03-17T01:48:11.910Z,38.47
2023-03-17T01:53:15.643Z,41.97
2023-03-17T01:58:21.978Z,42.25
2023-03-17T02:03:24.468Z,48.00
2023-03-17T02:08:27.615Z,51.65
2023-03-17T02:13:32.262Z,44.67
2023-03-17T02:18:35.804Z,43.00
2023-03-17T02:23:38.205Z,46.10
2023-03-17T02:28:47.248Z,43.42
2023-03-17T02:33:49.662Z,40.53
2023-03-17T02:38:53.339Z,40.30
2023-03-17T02:43:57.922Z,40.28
2023-03-17T02:49:02.137Z,44.00
2023-03-17T02:54:08.400Z,40.85
2023-03-17T02:59:11.273Z,37.72
2023-03-17T03:04:14.280Z,36.65
2023-03-17T03:09:17.959Z,40.05
2023-03-17T03:14:20.439Z,38.55
2023-03-17T03:19:23.143Z,38.60
2023-03-17T03:24:25.499Z,37.75
2023-03-17T03:29:27.958Z,34.28
2023-03-17T03:34:30.810Z,34.42
2023-03-17T03:39:33.252Z,34.37
2023-03-17T03:44:35.891Z,31.60
2023-03-17T03:49:39.506Z,31.65
2023-03-17T03:54:41.956Z,30.73
2023-03-17T03:59:44.528Z,27.33
2023-03-17T04:04:47.423Z,30.20
2023-03-17T04:09:51.214Z,28.77
2023-03-17T04:14:53.999Z,28.58
2023-03-17T04:19:56.483Z,31.77
2023-03-17T04:25:01.661Z,32.90
2023-03-17T04:35:11.194Z,25.27
2023-03-17T04:40:14.510Z,28.02
2023-03-17T04:45:19.450Z,29.65
2023-03-17T04:50:22.040Z,32.50
2023-03-17T04:55:26.594Z,30.92
2023-03-17T05:00:29.485Z,27.40
2023-03-17T05:05:32.902Z,26.25
2023-03-17T05:10:36.426Z,25.65
2023-03-17T05:15:40.736Z,26.75
2023-03-17T05:20:44.978Z,31.00
2023-03-17T05:25:52.785Z,35.42
2023-03-17T05:30:55.781Z,36.47
2023-03-17T05:35:58.713Z,32.75
2023-03-17T05:41:02.294Z,28.13
2023-03-17T05:46:06.084Z,27.55
2023-03-17T05:51:08.677Z,25.20
2023-03-17T05:56:11.687Z,28.30
2023-03-17T06:01:16.423Z,23.17
2023-03-17T06:06:23.071Z,27.55
2023-03-17T06:11:25.568Z,32.15
2023-03-17T06:16:30.899Z,32.45
2023-03-17T06:21:33.347Z,28.75
2023-03-17T06:26:37.496Z,26.05
2023-03-17T06:31:42.329Z,29.92
2023-03-17T06:36:45.632Z,24.65
2023-03-17T06:41:48.070Z,26.17
2023-03-17T06:46:50.526Z,25.58
2023-03-17T06:51:53.070Z,24.08
2023-03-17T06:56:55.618Z,28.10
2023-03-17T07:01:59.070Z,25.75
2023-03-17T07:07:01.482Z,26.95
2023-03-17T07:12:05.226Z,23.92
2023-03-17T07:17:10.991Z,25.48
2023-03-17T07:22:14.629Z,25.83
2023-03-17T07:27:17.297Z,24.67
2023-03-17T07:32:21.167Z,20.13
2023-03-17T07:37:25.180Z,26.02
2023-03-17T07:42:32.093Z,19.92
2023-03-17T07:47:34.737Z,25.00
2023-03-17T07:52:39.426Z,23.58
2023-03-17T07:57:42.017Z,26.13
2023-03-17T08:02:45.028Z,25.45
2023-03-17T08:07:49.428Z,27.10
2023-03-17T08:12:54.682Z,25.20
2023-03-17T08:17:57.423Z,24.67
2023-03-17T08:23:00.840Z,24.77
2023-03-17T08:28:05.788Z,25.95
2023-03-17T08:33:09.423Z,18.77
2023-03-17T08:43:18.844Z,14.82
2023-03-17T08:48:21.780Z,14.65
2023-03-17T08:53:30.216Z,17.30
2023-03-17T08:58:35.155Z,14.68
2023-03-17T09:03:39.610Z,14.48
2023-03-17T09:08:48.237Z,14.25
2023-03-17T09:13:51.343Z,18.15
2023-03-17T09:18:54.814Z,15.40
2023-03-17T09:29:00.141Z,16.42
2023-03-17T09:34:05.159Z,13.37
2023-03-17T09:39:09.127Z,16.33
2023-03-17T09:44:39.224Z,15.02
2023-03-17T09:49:51.174Z,17.45
2023-03-17T09:54:55.292Z,18.40
2023-03-17T10:00:04.236Z,13.07
2023-03-17T10:05:25.508Z,15.57
2023-03-17T10:10:40.220Z,13.88
2023-03-17T10:15:51.338Z,11.93
2023-03-17T10:21:00.448Z,14.70
2023-03-17T10:26:23.321Z,16.95
2023-03-17T10:31:34.939Z,10.48
2023-03-17T10:36:40.467Z,14.50
2023-03-17T10:42:03.402Z,13.50
2023-03-17T10:47:06.261Z,12.60
2023-03-17T10:52:21.239Z,15.60
2023-03-17T10:57:25.048Z,17.35
2023-03-17T11:02:36.791Z,14.63
2023-03-17T11:07:40.536Z,14.00
2023-03-17T11:12:43.254Z,13.10
2023-03-17T11:17:49.037Z,12.60
2023-03-17T11:23:06.307Z,14.35
2023-03-17T11:28:24.043Z,13.93
2023-03-17T11:33:36.444Z,10.75
2023-03-17T11:39:05.918Z,13.03
2023-03-17T11:44:32.339Z,10.98
2023-03-17T11:49:39.834Z,9.55
2023-03-17T11:55:39.800Z,12.77
2023-03-17T12:00:46.164Z,13.98
2023-03-17T12:05:51.793Z,12.30
2023-03-17T12:10:56.736Z,12.02
2023-03-17T12:16:11.312Z,10.05
2023-03-17T12:21:56.178Z,12.30
2023-03-17T12:27:13.979Z,13.23
2023-03-17T12:32:20.551Z,11.13
2023-03-17T12:37:24.492Z,14.15
2023-03-17T12:42:37.069Z,14.20
2023-03-17T12:47:45.175Z,11.70
2023-03-17T12:52:56.022Z,12.00
2023-03-17T12:58:25.352Z,12.20
2023-03-17T13:03:30.794Z,12.30
2023-03-17T13:08:39.828Z,12.82
2023-03-17T13:13:54.703Z,12.02
2023-03-17T13:19:13.250Z,12.88
2023-03-17T13:24:15.650Z,11.45
2023-03-17T13:29:34.317Z,12.20
2023-03-17T13:34:46.423Z,11.30
2023-03-17T13:40:20.664Z,16.98
2023-03-17T13:45:37.327Z,14.70
2023-03-17T13:50:40.302Z,13.05
2023-03-17T13:56:05.337Z,16.10
2023-03-17T14:01:12.718Z,18.35
2023-03-17T14:06:15.838Z,14.15
2023-03-17T14:11:26.624Z,13.05
2023-03-17T14:16:34.410Z,12.18
2023-03-17T14:21:37.326Z,14.40
2023-03-17T14:26:39.707Z,12.60
2023-03-17T14:31:43.242Z,13.35
2023-03-17T14:41:57.529Z,15.85
2023-03-17T14:47:04.960Z,13.52
2023-03-17T14:52:16.103Z,11.15
2023-03-17T14:57:22.836Z,12.80
2023-03-17T15:02:36.161Z,12.77
2023-03-17T15:07:41.463Z,12.95
2023-03-17T15:12:47.753Z,12.07
2023-03-17T15:17:58.177Z,15.57
2023-03-17T15:23:26.806Z,13.10
2023-03-17T15:28:31.643Z,14.57
2023-03-17T15:33:36.366Z,13.07
2023-03-17T15:38:39.192Z,13.15
2023-03-17T15:43:41.534Z,13.40
2023-03-17T15:48:44.147Z,14.45
2023-03-17T15:53:47.596Z,12.70
2023-03-17T16:03:54.921Z,12.55
2023-03-17T16:08:57.374Z,14.85
2023-03-17T16:14:00.174Z,13.27
2023-03-17T16:19:09.237Z,12.87
2023-03-17T16:24:18.623Z,12.80
2023-03-17T16:29:21.554Z,14.52
2023-03-17T16:34:24.234Z,14.07
2023-03-17T16:39:26.769Z,15.33
2023-03-17T16:44:30.460Z,15.43
2023-03-17T16:54:36.605Z,17.85
2023-03-17T16:59:39.189Z,16.23
2023-03-17T17:04:43.618Z,18.30
2023-03-17T17:09:46.763Z,13.32
2023-03-17T17:14:49.339Z,14.20
2023-03-17T17:19:56.569Z,17.40
2023-03-17T17:24:59.427Z,22.05
2023-03-17T17:30:06.005Z,19.75
2023-03-17T17:35:10.809Z,22.83
2023-03-17T17:45:17.749Z,28.95
2023-03-17T17:50:26.836Z,27.35
2023-03-17T17:55:29.522Z,26.15
2023-03-17T18:00:34.549Z,26.90
2023-03-17T18:05:37.693Z,24.67
2023-03-17T18:10:40.374Z,26.58
2023-03-17T18:15:43.134Z,29.75
2023-03-17T18:20:49.431Z,28.43
2023-03-17T18:26:02.770Z,21.10
2023-03-17T18:31:11.032Z,25.63
2023-03-17T18:36:13.505Z,29.83
2023-03-17T18:41:15.903Z,35.08
2023-03-17T18:46:19.825Z,32.92
2023-03-17T18:51:23.465Z,25.23
2023-03-17T18:56:30.887Z,25.95
2023-03-17T19:01:35.491Z,29.75
2023-03-17T19:11:45.198Z,33.40
2023-03-17T19:16:47.638Z,27.85
2023-03-17T19:21:51.045Z,24.17
2023-03-17T19:26:53.573Z,30.15
2023-03-17T19:31:56.689Z,30.67
2023-03-17T19:37:00.435Z,29.88
2023-03-17T19:42:07.061Z,32.85
2023-03-17T19:47:10.425Z,31.60
2023-03-17T19:52:14.803Z,30.52
2023-03-17T19:57:20.692Z,29.42
2023-03-17T20:02:23.678Z,29.30
2023-03-17T20:07:26.574Z,26.67
2023-03-17T20:12:33.462Z,27.30
2023-03-17T20:17:37.093Z,28.17
2023-03-17T20:22:44.071Z,27.00
2023-03-17T20:27:46.699Z,28.98
2023-03-17T20:32:49.655Z,28.43
2023-03-17T20:37:52.870Z,28.03
2023-03-17T20:42:55.255Z,27.58
2023-03-17T20:47:58.037Z,23.70
2023-03-17T20:53:00.668Z,22.23
2023-03-17T20:58:04.153Z,29.13
2023-03-17T21:03:07.652Z,26.45
2023-03-17T21:08:10.900Z,30.15
2023-03-17T21:13:14.780Z,33.17
2023-03-17T21:18:17.743Z,29.80
2023-03-17T21:24:26.492Z,24.65
2023-03-17T21:29:29.813Z,25.23
2023-03-17T21:34:32.714Z,25.63
2023-03-17T21:39:36.328Z,25.90
2023-03-17T21:49:41.647Z,24.45
2023-03-17T21:54:44.192Z,22.70
2023-03-17T21:59:47.669Z,29.88
2023-03-17T22:04:50.456Z,38.17
2023-03-17T22:09:58.611Z,38.37
2023-03-17T22:15:01.313Z,35.40
2023-03-17T22:20:07.026Z,32.63
2023-03-17T22:25:09.738Z,40.80
2023-03-17T22:30:13.006Z,38.73
2023-03-17T22:35:15.904Z,33.10
2023-03-17T22:40:19.306Z,45.42
2023-03-17T22:45:22.454Z,50.42
2023-03-17T22:50:25.543Z,109.25
2023-03-17T22:55:28.063Z,149.18
2023-03-17T23:00:32.576Z,113.05
2023-03-17T23:05:35.558Z,68.60
2023-03-17T23:10:39.109Z,50.85
2023-03-17T23:15:45.914Z,36.20
2023-03-17T23:20:48.864Z,30.63
2023-03-17T23:25:52.154Z,33.80
2023-03-17T23:30:54.710Z,30.08
2023-03-17T23:35:57.549Z,37.20
2023-03-17T23:41:00.464Z,35.13
2023-03-17T23:46:04.580Z,39.07
2023-03-17T23:51:07.638Z,37.13
2023-03-17T23:56:11.603Z,26.67
